Time;durP1;ratioP1;P1;durP2;ratioP2;P2;SDS_P1;SDS_P2;PMS_P1;PMS_P2;Temp;Humidity;BMP_temperature;BMP_pressure;BME280_temperature;BME280_humidity;BME280_pressure;Samples;Min_cycle;Max_cycle;Signal;HPM_P1;HPM_P2
2020/12/08 00:01:04;;;;;;;43.53;23.87;;;;;;;;;;5041404;28;20275;-73
2020/12/08 00:03:30;;;;;;;45.50;25.53;;;;;;;;;;5029633;28;20233;-73
2020/12/08 00:05:55;;;;;;;43.50;25.17;;;;;;;;;;5028288;28;20186;-74
2020/12/08 00:08:20;;;;;;;45.53;23.93;;;;;;;;;;5028073;28;20182;-73
2020/12/08 00:10:45;;;;;;;39.27;24.03;;;;;;;;;;5026325;28;20276;-74
2020/12/08 00:13:10;;;;;;;32.07;21.13;;;;;;;;;;5036890;28;20218;-72
2020/12/08 00:15:36;;;;;;;34.77;20.37;;;;;;;;;;5030107;28;20186;-74
2020/12/08 00:18:01;;;;;;;37.60;20.97;;;;;;;;;;5032699;28;20193;-72
2020/12/08 00:20:26;;;;;;;34.03;20.43;;;;;;;;;;5027852;28;20753;-72
2020/12/08 00:22:51;;;;;;;33.47;20.23;;;;;;;;;;5032967;28;20204;-73
2020/12/08 00:25:16;;;;;;;37.97;21.00;;;;;;;;;;5026818;28;21273;-74
2020/12/08 00:27:42;;;;;;;36.40;20.37;;;;;;;;;;5028555;28;20184;-74
2020/12/08 00:30:08;;;;;;;38.53;22.00;;;;;;;;;;5026479;28;20272;-73
2020/12/08 00:32:35;;;;;;;37.83;22.37;;;;;;;;;;5024725;28;20197;-73
2020/12/08 00:35:00;;;;;;;40.97;23.13;;;;;;;;;;5029667;28;20691;-73
2020/12/08 00:37:25;;;;;;;43.37;22.70;;;;;;;;;;5029708;28;20174;-74
2020/12/08 00:39:51;;;;;;;41.37;23.73;;;;;;;;;;5035413;28;20207;-73
2020/12/08 00:42:16;;;;;;;46.37;24.23;;;;;;;;;;5033955;28;20208;-73
2020/12/08 00:44:41;;;;;;;42.73;24.80;;;;;;;;;;5030249;28;20260;-74
2020/12/08 00:47:06;;;;;;;43.87;25.77;;;;;;;;;;5034453;28;20720;-74
2020/12/08 00:49:31;;;;;;;44.37;24.47;;;;;;;;;;5030320;28;20228;-74
2020/12/08 00:51:57;;;;;;;41.13;25.03;;;;;;;;;;5026059;28;20580;-73
2020/12/08 00:54:22;;;;;;;42.47;24.93;;;;;;;;;;5030956;28;20792;-74
2020/12/08 00:56:48;;;;;;;41.70;24.27;;;;;;;;;;5031526;28;20178;-74
2020/12/08 00:59:13;;;;;;;39.47;23.80;;;;;;;;;;5029750;28;20291;-73
2020/12/08 01:01:38;;;;;;;43.27;25.07;;;;;;;;;;5033168;28;20590;-73
2020/12/08 01:04:03;;;;;;;43.10;25.67;;;;;;;;;;5030592;28;20643;-73
2020/12/08 01:06:28;;;;;;;46.70;27.37;;;;;;;;;;5030561;28;20177;-73
2020/12/08 01:08:54;;;;;;;50.53;28.77;;;;;;;;;;5033027;28;20562;-73
2020/12/08 01:11:19;;;;;;;46.00;26.27;;;;;;;;;;5029983;28;20190;-73
2020/12/08 01:13:44;;;;;;;46.13;25.57;;;;;;;;;;5033051;28;20728;-73
2020/12/08 01:16:09;;;;;;;45.67;26.57;;;;;;;;;;5027909;28;20734;-73
2020/12/08 01:18:34;;;;;;;42.03;26.03;;;;;;;;;;5032705;28;20193;-73
2020/12/08 01:21:00;;;;;;;37.60;24.40;;;;;;;;;;5030302;28;20209;-73
2020/12/08 01:23:26;;;;;;;48.03;26.87;;;;;;;;;;5029662;28;20204;-73
2020/12/08 01:25:51;;;;;;;46.80;26.17;;;;;;;;;;5027564;28;20178;-74
2020/12/08 01:28:17;;;;;;;44.53;27.23;;;;;;;;;;5032989;28;20175;-74
2020/12/08 01:30:43;;;;;;;47.13;27.77;;;;;;;;;;5034518;28;20186;-73
2020/12/08 01:33:08;;;;;;;52.77;29.30;;;;;;;;;;5027129;28;20209;-73
2020/12/08 01:35:33;;;;;;;54.53;30.03;;;;;;;;;;5028690;28;20204;-73
2020/12/08 01:37:59;;;;;;;44.03;27.03;;;;;;;;;;5027097;28;20193;-74
2020/12/08 01:40:24;;;;;;;49.40;29.17;;;;;;;;;;5030442;28;20243;-73
2020/12/08 01:42:49;;;;;;;53.43;28.87;;;;;;;;;;5038156;28;20223;-73
2020/12/08 01:45:14;;;;;;;56.33;30.20;;;;;;;;;;5028990;28;20305;-73
2020/12/08 01:47:41;;;;;;;50.47;27.73;;;;;;;;;;5032325;28;20268;-73
2020/12/08 01:50:06;;;;;;;49.77;28.77;;;;;;;;;;5028772;28;20190;-74
2020/12/08 01:52:32;;;;;;;52.10;29.03;;;;;;;;;;5031813;28;20239;-74
2020/12/08 01:55:00;;;;;;;56.27;30.77;;;;;;;;;;5027380;28;20182;-73
2020/12/08 01:57:25;;;;;;;53.60;31.37;;;;;;;;;;5038088;28;20655;-73
2020/12/08 01:59:50;;;;;;;53.63;28.73;;;;;;;;;;5029094;28;20216;-73
2020/12/08 02:02:15;;;;;;;57.57;30.77;;;;;;;;;;5031486;28;20202;-73
2020/12/08 02:04:41;;;;;;;54.07;30.73;;;;;;;;;;5029501;28;20177;-73
2020/12/08 02:07:06;;;;;;;54.90;31.00;;;;;;;;;;5031116;28;20922;-73
2020/12/08 02:09:34;;;;;;;54.63;32.20;;;;;;;;;;5037932;28;20246;-73
2020/12/08 02:11:59;;;;;;;54.33;30.83;;;;;;;;;;5030533;28;20219;-73
2020/12/08 02:14:24;;;;;;;50.50;29.97;;;;;;;;;;5029799;28;20189;-74
2020/12/08 02:16:49;;;;;;;52.13;29.90;;;;;;;;;;5024995;28;20193;-74
2020/12/08 02:19:14;;;;;;;47.87;27.80;;;;;;;;;;5036524;28;20261;-73
2020/12/08 02:21:40;;;;;;;51.10;29.60;;;;;;;;;;5028148;28;20184;-74
2020/12/08 02:24:06;;;;;;;54.70;29.90;;;;;;;;;;5028505;28;20178;-74
2020/12/08 02:26:31;;;;;;;51.60;29.47;;;;;;;;;;5026869;28;20252;-73
2020/12/08 02:28:56;;;;;;;55.13;29.90;;;;;;;;;;5030716;28;20182;-73
2020/12/08 02:31:22;;;;;;;49.43;28.03;;;;;;;;;;5038346;28;20201;-73
2020/12/08 02:33:47;;;;;;;49.97;28.03;;;;;;;;;;5035616;28;20193;-73
2020/12/08 02:36:12;;;;;;;53.63;29.53;;;;;;;;;;5036275;28;20185;-73
2020/12/08 02:38:38;;;;;;;57.43;29.90;;;;;;;;;;5038369;28;20177;-73
2020/12/08 02:41:04;;;;;;;48.63;28.20;;;;;;;;;;5050962;28;20209;-73
2020/12/08 02:43:29;;;;;;;50.57;28.47;;;;;;;;;;5030824;28;20210;-73
2020/12/08 02:45:54;;;;;;;51.57;30.17;;;;;;;;;;5037835;28;20196;-73
2020/12/08 02:48:19;;;;;;;52.93;29.33;;;;;;;;;;5031993;28;20177;-73
2020/12/08 02:50:45;;;;;;;56.17;30.43;;;;;;;;;;5026388;28;20655;-73
2020/12/08 02:53:10;;;;;;;56.57;29.73;;;;;;;;;;5031537;28;20713;-73
2020/12/08 02:55:35;;;;;;;52.67;30.17;;;;;;;;;;5025982;28;20641;-73
2020/12/08 02:58:00;;;;;;;51.87;29.33;;;;;;;;;;5030717;28;20669;-73
2020/12/08 03:00:26;;;;;;;56.77;30.20;;;;;;;;;;5025986;28;20236;-73
2020/12/08 03:02:51;;;;;;;55.07;30.43;;;;;;;;;;5030110;28;20201;-73
2020/12/08 03:05:16;;;;;;;56.50;29.50;;;;;;;;;;5027071;28;20246;-73
2020/12/08 03:07:41;;;;;;;52.63;27.30;;;;;;;;;;5033377;28;20205;-73
2020/12/08 03:10:07;;;;;;;57.17;26.80;;;;;;;;;;5036480;28;20182;-73
2020/12/08 03:12:33;;;;;;;44.33;26.57;;;;;;;;;;5034544;28;20224;-72
2020/12/08 03:14:58;;;;;;;45.50;26.30;;;;;;;;;;5026668;28;20190;-73
2020/12/08 03:17:23;;;;;;;45.90;26.27;;;;;;;;;;5028543;28;20387;-73
2020/12/08 03:19:51;;;;;;;45.60;24.93;;;;;;;;;;5028437;28;20240;-73
2020/12/08 03:22:17;;;;;;;43.73;24.47;;;;;;;;;;5029758;28;20251;-73
2020/12/08 03:24:42;;;;;;;43.80;26.20;;;;;;;;;;5027064;28;20175;-73
2020/12/08 03:27:07;;;;;;;42.40;23.80;;;;;;;;;;5028341;28;20232;-73
2020/12/08 03:29:32;;;;;;;39.50;23.57;;;;;;;;;;5035447;28;20177;-73
2020/12/08 03:31:57;;;;;;;38.17;23.87;;;;;;;;;;5032144;28;20201;-73
2020/12/08 03:34:22;;;;;;;41.60;23.73;;;;;;;;;;5028476;28;20786;-73
2020/12/08 03:36:48;;;;;;;43.47;24.50;;;;;;;;;;5027654;28;20264;-73
2020/12/08 03:39:16;;;;;;;36.50;22.83;;;;;;;;;;5029308;28;20247;-73
2020/12/08 03:41:41;;;;;;;41.10;22.13;;;;;;;;;;5031833;28;20174;-73
2020/12/08 03:44:06;;;;;;;39.60;22.93;;;;;;;;;;5026384;28;20179;-73
2020/12/08 03:46:31;;;;;;;43.33;21.73;;;;;;;;;;5030967;28;21937;-73
2020/12/08 03:48:56;;;;;;;38.50;21.67;;;;;;;;;;5031420;28;20186;-72
2020/12/08 03:51:22;;;;;;;37.53;20.97;;;;;;;;;;5032150;28;20205;-73
2020/12/08 03:53:47;;;;;;;36.23;21.50;;;;;;;;;;5031972;28;21703;-73
2020/12/08 03:56:16;;;;;;;35.47;20.13;;;;;;;;;;5034405;28;20264;-73
2020/12/08 03:58:41;;;;;;;34.90;19.90;;;;;;;;;;5029573;28;20181;-73
2020/12/08 04:01:12;;;;;;;38.87;20.93;;;;;;;;;;5031800;28;20612;-73
2020/12/08 04:03:37;;;;;;;35.53;20.63;;;;;;;;;;5033764;28;20202;-73
2020/12/08 04:06:03;;;;;;;34.80;21.37;;;;;;;;;;5031348;28;20177;-72
2020/12/08 04:08:28;;;;;;;36.73;20.57;;;;;;;;;;5032578;28;20169;-73
2020/12/08 04:10:53;;;;;;;40.67;21.03;;;;;;;;;;5032123;28;20693;-73
2020/12/08 04:13:18;;;;;;;32.40;20.03;;;;;;;;;;5036469;28;20233;-73
2020/12/08 04:15:43;;;;;;;34.97;20.13;;;;;;;;;;5031010;28;20313;-73
2020/12/08 04:18:08;;;;;;;34.17;19.07;;;;;;;;;;5034731;28;20277;-73
2020/12/08 04:20:34;;;;;;;36.70;18.40;;;;;;;;;;5030477;28;20259;-73
2020/12/08 04:22:59;;;;;;;38.97;19.77;;;;;;;;;;5033453;28;20205;-73
2020/12/08 04:25:24;;;;;;;37.63;20.43;;;;;;;;;;5031745;28;20250;-72
2020/12/08 04:27:49;;;;;;;33.80;18.87;;;;;;;;;;5047557;28;20212;-73
2020/12/08 04:30:14;;;;;;;34.37;20.03;;;;;;;;;;5028121;28;20217;-72
2020/12/08 04:32:39;;;;;;;33.10;18.83;;;;;;;;;;5029802;28;20684;-72
2020/12/08 04:35:05;;;;;;;35.03;19.80;;;;;;;;;;5031178;28;20265;-73
2020/12/08 04:37:31;;;;;;;35.77;20.23;;;;;;;;;;5030972;28;20178;-72
2020/12/08 04:39:56;;;;;;;32.40;19.07;;;;;;;;;;5037387;28;20201;-73
2020/12/08 04:42:21;;;;;;;33.67;19.63;;;;;;;;;;5031701;28;20198;-73
2020/12/08 04:44:46;;;;;;;35.00;19.67;;;;;;;;;;5030005;28;20174;-73
2020/12/08 04:47:16;;;;;;;36.80;19.93;;;;;;;;;;5033512;28;20265;-73
2020/12/08 04:49:42;;;;;;;38.10;20.03;;;;;;;;;;5029457;28;20182;-72
2020/12/08 04:52:07;;;;;;;37.77;20.03;;;;;;;;;;5032732;28;20217;-73
2020/12/08 04:54:32;;;;;;;31.87;18.97;;;;;;;;;;5031021;28;20820;-73
2020/12/08 04:56:57;;;;;;;32.67;19.33;;;;;;;;;;5035977;28;20572;-73
2020/12/08 04:59:23;;;;;;;33.00;19.30;;;;;;;;;;5027739;28;20217;-73
2020/12/08 05:01:48;;;;;;;32.23;18.80;;;;;;;;;;5030188;28;20589;-73
2020/12/08 05:04:21;;;;;;;32.27;18.67;;;;;;;;;;5028855;28;20178;-73
2020/12/08 05:06:47;;;;;;;35.10;20.57;;;;;;;;;;5039300;28;20177;-73
2020/12/08 05:09:12;;;;;;;31.23;19.07;;;;;;;;;;5038969;28;20177;-73
2020/12/08 05:11:37;;;;;;;34.97;18.97;;;;;;;;;;5043085;28;20181;-73
2020/12/08 05:14:03;;;;;;;29.93;18.33;;;;;;;;;;5032924;28;20197;-73
2020/12/08 05:16:28;;;;;;;31.00;19.20;;;;;;;;;;5030846;28;20171;-73
2020/12/08 05:19:04;;;;;;;35.77;19.43;;;;;;;;;;5029400;28;21856;-73
2020/12/08 05:21:29;;;;;;;34.50;19.50;;;;;;;;;;5030171;28;20301;-73
2020/12/08 05:23:54;;;;;;;29.83;17.13;;;;;;;;;;5028661;28;20201;-73
2020/12/08 05:26:19;;;;;;;35.97;18.60;;;;;;;;;;5030723;28;20820;-73
2020/12/08 05:28:44;;;;;;;35.87;19.07;;;;;;;;;;5027695;28;20180;-73
2020/12/08 05:31:10;;;;;;;34.13;20.17;;;;;;;;;;5030706;28;20189;-73
2020/12/08 05:33:37;;;;;;;38.07;18.93;;;;;;;;;;5033377;28;20785;-73
2020/12/08 05:36:02;;;;;;;33.97;18.47;;;;;;;;;;5029322;28;20190;-73
2020/12/08 05:38:32;;;;;;;33.67;19.43;;;;;;;;;;5029865;28;20693;-73
2020/12/08 05:41:00;;;;;;;34.47;18.67;;;;;;;;;;5030478;28;20213;-73
2020/12/08 05:43:29;;;;;;;32.00;18.40;;;;;;;;;;5032165;28;20224;-73
2020/12/08 05:45:55;;;;;;;35.17;18.60;;;;;;;;;;5028283;28;20996;-73
2020/12/08 05:48:21;;;;;;;30.60;17.90;;;;;;;;;;5030192;28;20186;-73
2020/12/08 05:50:47;;;;;;;33.73;20.00;;;;;;;;;;5028148;28;20193;-73
2020/12/08 05:53:15;;;;;;;39.00;19.83;;;;;;;;;;5027776;28;20213;-73
2020/12/08 05:55:40;;;;;;;35.83;19.90;;;;;;;;;;5035089;28;20181;-73
2020/12/08 05:58:06;;;;;;;33.83;20.20;;;;;;;;;;5030148;28;20683;-73
2020/12/08 06:00:32;;;;;;;33.53;19.10;;;;;;;;;;5045827;28;20229;-73
2020/12/08 06:03:07;;;;;;;34.93;19.77;;;;;;;;;;5029694;28;20221;-73
2020/12/08 06:05:32;;;;;;;32.07;20.10;;;;;;;;;;5035655;28;20195;-73
2020/12/08 06:07:58;;;;;;;35.97;19.87;;;;;;;;;;5035569;28;20192;-73
2020/12/08 06:10:24;;;;;;;37.13;20.07;;;;;;;;;;5030054;28;20220;-73
2020/12/08 06:12:56;;;;;;;39.93;20.73;;;;;;;;;;5034357;28;20209;-73
2020/12/08 06:15:25;;;;;;;38.17;20.47;;;;;;;;;;5030215;28;20733;-72
2020/12/08 06:17:51;;;;;;;38.00;21.90;;;;;;;;;;5033613;28;20285;-73
2020/12/08 06:20:16;;;;;;;41.70;22.30;;;;;;;;;;5027018;28;20634;-73
2020/12/08 06:22:52;;;;;;;35.80;19.67;;;;;;;;;;5032411;28;21630;-73
2020/12/08 06:25:17;;;;;;;43.00;21.07;;;;;;;;;;5028775;28;20188;-72
2020/12/08 06:27:42;;;;;;;32.13;20.17;;;;;;;;;;5031692;28;20175;-73
2020/12/08 06:30:07;;;;;;;41.93;22.37;;;;;;;;;;5038003;28;20712;-72
2020/12/08 06:32:33;;;;;;;38.87;21.00;;;;;;;;;;5031502;28;20241;-72
2020/12/08 06:35:01;;;;;;;41.43;21.90;;;;;;;;;;5028212;28;20181;-72
2020/12/08 06:37:26;;;;;;;39.20;22.73;;;;;;;;;;5029417;28;20562;-72
2020/12/08 06:39:52;;;;;;;46.57;30.80;;;;;;;;;;5028295;28;20209;-71
2020/12/08 06:42:17;;;;;;;61.80;35.23;;;;;;;;;;5030307;28;20192;-71
2020/12/08 06:44:42;;;;;;;56.63;31.93;;;;;;;;;;5029545;28;20655;-71
2020/12/08 06:47:07;;;;;;;54.40;30.20;;;;;;;;;;5029655;28;20181;-72
2020/12/08 06:49:36;;;;;;;46.57;24.93;;;;;;;;;;5028825;28;20175;-72
2020/12/08 06:52:02;;;;;;;48.23;26.10;;;;;;;;;;5044600;28;20646;-72
2020/12/08 06:54:27;;;;;;;47.80;23.70;;;;;;;;;;5029304;28;20268;-71
2020/12/08 06:57:02;;;;;;;52.93;24.60;;;;;;;;;;5031454;28;20174;-72
2020/12/08 06:59:28;;;;;;;43.07;23.00;;;;;;;;;;5028451;28;20182;-72
2020/12/08 07:01:54;;;;;;;44.33;24.10;;;;;;;;;;5027876;28;20211;-72
2020/12/08 07:04:19;;;;;;;47.67;25.60;;;;;;;;;;5028785;28;20213;-71
2020/12/08 07:06:45;;;;;;;54.83;26.10;;;;;;;;;;5033927;28;20223;-72
2020/12/08 07:09:10;;;;;;;51.57;24.80;;;;;;;;;;5051575;28;20611;-72
2020/12/08 07:11:35;;;;;;;53.40;26.80;;;;;;;;;;5029207;28;20194;-71
2020/12/08 07:14:01;;;;;;;54.87;26.63;;;;;;;;;;5028811;28;20671;-72
2020/12/08 07:16:27;;;;;;;57.47;28.00;;;;;;;;;;5030439;28;20669;-72
2020/12/08 07:18:53;;;;;;;48.67;26.87;;;;;;;;;;5029056;28;20740;-72
2020/12/08 07:21:19;;;;;;;52.50;26.37;;;;;;;;;;5033214;28;20667;-72
2020/12/08 07:23:44;;;;;;;51.13;26.53;;;;;;;;;;5032092;28;20284;-72
2020/12/08 07:26:10;;;;;;;54.03;28.50;;;;;;;;;;5028412;28;20228;-72
2020/12/08 07:28:35;;;;;;;49.93;26.53;;;;;;;;;;5044030;28;20184;-72
2020/12/08 07:31:00;;;;;;;53.07;26.97;;;;;;;;;;5046037;28;20186;-72
2020/12/08 07:33:29;;;;;;;51.30;24.93;;;;;;;;;;5033187;28;20276;-71
2020/12/08 07:35:55;;;;;;;44.53;24.80;;;;;;;;;;5030183;28;20573;-72
2020/12/08 07:38:20;;;;;;;49.90;25.73;;;;;;;;;;5032130;28;20190;-72
2020/12/08 07:40:45;;;;;;;52.53;25.43;;;;;;;;;;5031450;28;20336;-72
2020/12/08 07:43:10;;;;;;;55.53;25.70;;;;;;;;;;5036542;28;20683;-72
2020/12/08 07:45:43;;;;;;;51.73;24.23;;;;;;;;;;5033082;28;20181;-72
2020/12/08 07:48:10;;;;;;;54.57;26.93;;;;;;;;;;5034923;28;20265;-72
2020/12/08 07:50:35;;;;;;;58.07;26.90;;;;;;;;;;5031996;28;20195;-72
2020/12/08 07:53:02;;;;;;;59.33;26.83;;;;;;;;;;5036276;28;20202;-72
2020/12/08 07:55:28;;;;;;;53.43;24.93;;;;;;;;;;5036033;28;20182;-72
2020/12/08 07:57:53;;;;;;;51.57;24.90;;;;;;;;;;5033938;28;20538;-72
2020/12/08 08:00:18;;;;;;;46.47;24.67;;;;;;;;;;5030251;28;20193;-72
2020/12/08 08:02:44;;;;;;;51.47;25.03;;;;;;;;;;5036766;28;20494;-72
2020/12/08 08:05:09;;;;;;;57.77;27.77;;;;;;;;;;5041690;28;20611;-72
2020/12/08 08:07:34;;;;;;;52.60;25.03;;;;;;;;;;5030734;28;20185;-72
2020/12/08 08:09:59;;;;;;;52.80;25.57;;;;;;;;;;5035120;28;20677;-72
2020/12/08 08:12:25;;;;;;;46.13;25.23;;;;;;;;;;5043747;28;20216;-72
2020/12/08 08:14:50;;;;;;;45.07;26.17;;;;;;;;;;5040778;28;20182;-72
2020/12/08 08:17:15;;;;;;;46.60;25.47;;;;;;;;;;5039865;28;20185;-72
2020/12/08 08:19:40;;;;;;;44.83;25.57;;;;;;;;;;5036887;28;20194;-71
2020/12/08 08:22:06;;;;;;;45.10;24.30;;;;;;;;;;5033954;28;20194;-72
2020/12/08 08:24:31;;;;;;;44.77;25.57;;;;;;;;;;5031060;28;20181;-72
2020/12/08 08:26:56;;;;;;;50.17;26.73;;;;;;;;;;5031770;28;20182;-71
2020/12/08 08:29:22;;;;;;;50.07;29.50;;;;;;;;;;5032371;28;20288;-72
2020/12/08 08:31:47;;;;;;;48.90;27.73;;;;;;;;;;5029658;28;20234;-72
2020/12/08 08:34:12;;;;;;;48.03;27.07;;;;;;;;;;5032919;28;20189;-70
2020/12/08 08:36:47;;;;;;;43.30;25.07;;;;;;;;;;5035193;28;20182;-71
2020/12/08 08:39:13;;;;;;;46.67;26.83;;;;;;;;;;5034517;28;20185;-71
2020/12/08 08:41:38;;;;;;;49.13;26.00;;;;;;;;;;5029991;28;20663;-72
2020/12/08 08:44:03;;;;;;;47.10;26.27;;;;;;;;;;5032208;28;20181;-71
2020/12/08 08:46:29;;;;;;;48.40;24.50;;;;;;;;;;5031086;28;20840;-72
2020/12/08 08:48:54;;;;;;;49.23;25.43;;;;;;;;;;5029160;28;20205;-72
2020/12/08 08:51:19;;;;;;;46.40;25.53;;;;;;;;;;5030413;28;20289;-71
2020/12/08 08:53:44;;;;;;;48.63;25.57;;;;;;;;;;5030721;28;21417;-71
2020/12/08 08:56:10;;;;;;;49.00;27.03;;;;;;;;;;5031407;28;20190;-72
2020/12/08 08:58:35;;;;;;;44.47;25.77;;;;;;;;;;5036491;28;20189;-71
2020/12/08 09:01:00;;;;;;;52.80;27.23;;;;;;;;;;5029197;28;20205;-72
2020/12/08 09:03:25;;;;;;;47.07;25.37;;;;;;;;;;5034929;28;20279;-70
2020/12/08 09:05:50;;;;;;;51.20;25.80;;;;;;;;;;5028974;28;20178;-71
2020/12/08 09:08:16;;;;;;;51.70;29.20;;;;;;;;;;5032031;28;20226;-71
2020/12/08 09:10:41;;;;;;;50.83;29.17;;;;;;;;;;5031444;28;21762;-71
2020/12/08 09:13:06;;;;;;;43.40;27.33;;;;;;;;;;5043473;28;20213;-72
2020/12/08 09:15:31;;;;;;;50.40;26.77;;;;;;;;;;5032659;28;20189;-71
2020/12/08 09:17:56;;;;;;;45.97;26.17;;;;;;;;;;5027069;28;20188;-71
2020/12/08 09:20:22;;;;;;;49.87;27.10;;;;;;;;;;5030011;28;20189;-72
2020/12/08 09:22:47;;;;;;;43.63;26.27;;;;;;;;;;5033967;28;20196;-72
2020/12/08 09:25:12;;;;;;;49.33;27.73;;;;;;;;;;5030549;28;20182;-71
2020/12/08 09:27:37;;;;;;;47.60;26.53;;;;;;;;;;5029395;28;20239;-71
2020/12/08 09:30:03;;;;;;;42.37;25.53;;;;;;;;;;5029355;28;20208;-72
2020/12/08 09:32:29;;;;;;;42.67;25.93;;;;;;;;;;5051176;28;20284;-72
2020/12/08 09:34:54;;;;;;;45.93;25.27;;;;;;;;;;5048858;28;20277;-72
2020/12/08 09:37:19;;;;;;;45.53;26.80;;;;;;;;;;5032490;28;20183;-72
2020/12/08 09:39:44;;;;;;;51.57;27.07;;;;;;;;;;5031011;28;20287;-72
2020/12/08 09:42:09;;;;;;;42.47;25.33;;;;;;;;;;5029910;28;20205;-72
2020/12/08 09:44:35;;;;;;;48.27;28.17;;;;;;;;;;5030266;28;20612;-71
2020/12/08 09:47:00;;;;;;;40.87;24.97;;;;;;;;;;5027846;28;20189;-72
2020/12/08 09:49:25;;;;;;;49.77;27.43;;;;;;;;;;5031064;28;20188;-72
2020/12/08 09:51:50;;;;;;;34.70;24.63;;;;;;;;;;5031017;28;20190;-72
2020/12/08 09:54:16;;;;;;;40.23;26.10;;;;;;;;;;5031841;28;20201;-71
2020/12/08 09:56:44;;;;;;;40.10;26.13;;;;;;;;;;5028023;28;20553;-71
2020/12/08 09:59:09;;;;;;;33.67;24.27;;;;;;;;;;5026734;28;20737;-71
2020/12/08 10:01:35;;;;;;;34.17;23.50;;;;;;;;;;5024418;28;20214;-72
2020/12/08 10:04:00;;;;;;;38.50;23.43;;;;;;;;;;5031290;28;20225;-72
2020/12/08 10:06:25;;;;;;;36.63;24.20;;;;;;;;;;5034676;28;20189;-72
2020/12/08 10:08:54;;;;;;;36.20;23.27;;;;;;;;;;5034755;28;20242;-72
2020/12/08 10:11:20;;;;;;;34.63;23.00;;;;;;;;;;5036889;28;20174;-72
2020/12/08 10:13:45;;;;;;;29.77;21.80;;;;;;;;;;5031680;28;20218;-71
2020/12/08 10:16:11;;;;;;;30.23;21.23;;;;;;;;;;5026521;28;20178;-71
2020/12/08 10:18:36;;;;;;;31.83;21.27;;;;;;;;;;5031768;28;20193;-72
2020/12/08 10:21:02;;;;;;;37.33;22.50;;;;;;;;;;5026840;28;20201;-72
2020/12/08 10:23:27;;;;;;;28.70;20.40;;;;;;;;;;5028320;28;20255;-71
2020/12/08 10:25:52;;;;;;;30.87;22.60;;;;;;;;;;5029165;28;20181;-72
2020/12/08 10:28:17;;;;;;;32.73;21.33;;;;;;;;;;5026972;28;20372;-72
2020/12/08 10:30:43;;;;;;;27.90;20.10;;;;;;;;;;5028616;28;20181;-72
2020/12/08 10:33:08;;;;;;;27.87;20.73;;;;;;;;;;5030813;28;20197;-72
2020/12/08 10:35:33;;;;;;;29.80;20.20;;;;;;;;;;5030260;28;20186;-72
2020/12/08 10:37:58;;;;;;;28.90;19.83;;;;;;;;;;5027208;28;20178;-72
2020/12/08 10:40:23;;;;;;;27.87;19.60;;;;;;;;;;5026771;28;20692;-73
2020/12/08 10:42:49;;;;;;;30.50;19.90;;;;;;;;;;5032367;28;20193;-72
2020/12/08 10:45:14;;;;;;;27.27;19.93;;;;;;;;;;5027973;28;20255;-73
2020/12/08 10:47:39;;;;;;;27.40;19.70;;;;;;;;;;5029467;28;20196;-72
2020/12/08 10:50:04;;;;;;;29.47;20.30;;;;;;;;;;5027843;28;20174;-73
2020/12/08 10:52:29;;;;;;;27.80;19.33;;;;;;;;;;5031449;28;20202;-73
2020/12/08 10:54:54;;;;;;;30.73;18.23;;;;;;;;;;5030345;28;20541;-73
2020/12/08 10:57:20;;;;;;;24.50;17.00;;;;;;;;;;5033760;28;20206;-73
2020/12/08 10:59:45;;;;;;;25.53;18.63;;;;;;;;;;5034176;28;20894;-73
2020/12/08 11:02:11;;;;;;;23.80;17.87;;;;;;;;;;5049432;28;20285;-74
2020/12/08 11:04:36;;;;;;;24.17;17.17;;;;;;;;;;5033468;28;20177;-73
2020/12/08 11:07:01;;;;;;;21.43;15.97;;;;;;;;;;5035116;28;20177;-72
2020/12/08 11:09:26;;;;;;;22.27;16.80;;;;;;;;;;5030891;28;20658;-73
2020/12/08 11:11:51;;;;;;;23.47;16.47;;;;;;;;;;5043110;28;20178;-73
2020/12/08 11:14:16;;;;;;;25.93;17.90;;;;;;;;;;5029783;28;20192;-73
2020/12/08 11:16:42;;;;;;;22.17;15.57;;;;;;;;;;5031163;28;20675;-71
2020/12/08 11:19:07;;;;;;;25.07;17.10;;;;;;;;;;5030570;28;20334;-71
2020/12/08 11:21:32;;;;;;;23.70;16.80;;;;;;;;;;5029582;28;20293;-71
2020/12/08 11:23:57;;;;;;;24.73;17.63;;;;;;;;;;5031120;28;20201;-71
2020/12/08 11:26:23;;;;;;;26.57;17.97;;;;;;;;;;5029716;28;20278;-72
2020/12/08 11:28:48;;;;;;;24.20;17.30;;;;;;;;;;5030829;28;20639;-71
2020/12/08 11:31:13;;;;;;;24.10;18.13;;;;;;;;;;5030621;28;20185;-72
2020/12/08 11:33:39;;;;;;;23.43;18.10;;;;;;;;;;5033240;28;20221;-73
2020/12/08 11:36:05;;;;;;;30.00;16.63;;;;;;;;;;5031580;28;21705;-70
2020/12/08 11:38:31;;;;;;;23.13;17.20;;;;;;;;;;5030654;28;20205;-73
2020/12/08 11:40:56;;;;;;;23.27;17.50;;;;;;;;;;5032738;28;20209;-71
2020/12/08 11:43:21;;;;;;;24.40;17.60;;;;;;;;;;5034462;28;20822;-71
2020/12/08 11:45:46;;;;;;;22.27;17.17;;;;;;;;;;5030889;28;20654;-71
2020/12/08 11:48:12;;;;;;;23.03;17.07;;;;;;;;;;5041518;28;20181;-71
2020/12/08 11:50:37;;;;;;;23.30;16.23;;;;;;;;;;5032781;28;20200;-70
2020/12/08 11:53:02;;;;;;;22.87;16.07;;;;;;;;;;5029120;28;20289;-71
2020/12/08 11:55:27;;;;;;;25.27;17.00;;;;;;;;;;5030735;28;20193;-73
2020/12/08 11:57:53;;;;;;;21.03;16.33;;;;;;;;;;5033089;28;20205;-71
2020/12/08 12:00:19;;;;;;;25.80;17.60;;;;;;;;;;5031206;28;20214;-72
2020/12/08 12:02:44;;;;;;;23.80;18.30;;;;;;;;;;5030886;28;20241;-71
2020/12/08 12:05:09;;;;;;;22.27;16.67;;;;;;;;;;5028964;28;20276;-73
2020/12/08 12:07:34;;;;;;;25.17;17.70;;;;;;;;;;5030556;28;20267;-71
2020/12/08 12:09:59;;;;;;;21.73;16.00;;;;;;;;;;5029743;28;20205;-70
2020/12/08 12:12:25;;;;;;;23.57;17.93;;;;;;;;;;5034598;28;20296;-73
2020/12/08 12:14:50;;;;;;;20.27;15.37;;;;;;;;;;5030017;28;20185;-71
2020/12/08 12:17:15;;;;;;;24.53;16.60;;;;;;;;;;5029080;28;20193;-71
2020/12/08 12:19:40;;;;;;;21.93;15.73;;;;;;;;;;5031135;28;20338;-71
2020/12/08 12:22:05;;;;;;;22.07;16.37;;;;;;;;;;5031092;28;20193;-71
2020/12/08 12:24:31;;;;;;;19.70;15.77;;;;;;;;;;5032325;28;20205;-71
2020/12/08 12:26:56;;;;;;;19.10;15.60;;;;;;;;;;5029914;28;20174;-71
2020/12/08 12:29:21;;;;;;;20.23;15.57;;;;;;;;;;5032050;28;20588;-71
2020/12/08 12:31:47;;;;;;;20.03;14.80;;;;;;;;;;5030798;28;20304;-71
2020/12/08 12:34:12;;;;;;;22.73;16.20;;;;;;;;;;5033855;28;20174;-71
2020/12/08 12:36:38;;;;;;;21.73;15.70;;;;;;;;;;5028809;28;20197;-71
2020/12/08 12:39:04;;;;;;;21.50;15.50;;;;;;;;;;5032553;28;20174;-71
2020/12/08 12:41:30;;;;;;;20.77;16.07;;;;;;;;;;5030169;28;20231;-71
2020/12/08 12:43:55;;;;;;;20.23;15.20;;;;;;;;;;5027210;28;20230;-72
2020/12/08 12:46:20;;;;;;;21.13;15.10;;;;;;;;;;5030296;28;20261;-73
2020/12/08 12:48:46;;;;;;;19.93;15.53;;;;;;;;;;5033128;28;20674;-72
2020/12/08 12:51:11;;;;;;;20.17;14.57;;;;;;;;;;5048229;28;20544;-72
2020/12/08 12:53:37;;;;;;;19.93;16.10;;;;;;;;;;5029736;28;20202;-72
2020/12/08 12:56:02;;;;;;;19.10;15.00;;;;;;;;;;5030172;28;20190;-73
2020/12/08 12:58:27;;;;;;;22.77;14.53;;;;;;;;;;5034645;28;21237;-72
2020/12/08 13:00:52;;;;;;;22.47;16.93;;;;;;;;;;5032567;28;20314;-72
2020/12/08 13:03:18;;;;;;;19.70;15.30;;;;;;;;;;5029036;28;20199;-72
2020/12/08 13:05:43;;;;;;;18.93;15.23;;;;;;;;;;5028498;28;20792;-72
2020/12/08 13:08:08;;;;;;;20.67;15.57;;;;;;;;;;5026419;28;20182;-73
2020/12/08 13:10:33;;;;;;;17.87;14.03;;;;;;;;;;5030158;28;20608;-72
2020/12/08 13:12:59;;;;;;;19.67;15.73;;;;;;;;;;5033558;28;20213;-72
2020/12/08 13:15:24;;;;;;;20.93;15.40;;;;;;;;;;5033166;28;20216;-72
2020/12/08 13:17:50;;;;;;;19.03;14.43;;;;;;;;;;5028226;28;20178;-71
2020/12/08 13:20:15;;;;;;;18.20;15.23;;;;;;;;;;5029603;28;20198;-72
2020/12/08 13:22:41;;;;;;;19.47;15.20;;;;;;;;;;5033497;28;20190;-72
2020/12/08 13:25:06;;;;;;;19.90;15.47;;;;;;;;;;5035229;28;20263;-73
2020/12/08 13:27:32;;;;;;;21.07;15.40;;;;;;;;;;5035785;28;20184;-73
2020/12/08 13:29:57;;;;;;;18.67;15.43;;;;;;;;;;5033911;28;20174;-72
2020/12/08 13:32:22;;;;;;;22.33;15.93;;;;;;;;;;5035051;28;20201;-72
2020/12/08 13:34:47;;;;;;;22.97;16.60;;;;;;;;;;5034307;28;20181;-72
2020/12/08 13:37:13;;;;;;;20.47;15.27;;;;;;;;;;5032704;28;21863;-72
2020/12/08 13:39:38;;;;;;;20.73;16.43;;;;;;;;;;5028309;28;20193;-72
2020/12/08 13:42:03;;;;;;;23.90;15.80;;;;;;;;;;5032707;28;20236;-72
2020/12/08 13:44:28;;;;;;;21.87;15.60;;;;;;;;;;5037407;28;20235;-71
2020/12/08 13:46:57;;;;;;;20.80;16.13;;;;;;;;;;5029005;28;20193;-71
2020/12/08 13:49:22;;;;;;;20.90;15.97;;;;;;;;;;5028078;28;20178;-72
2020/12/08 13:51:48;;;;;;;22.13;16.13;;;;;;;;;;5026816;28;20746;-71
2020/12/08 13:54:13;;;;;;;21.10;15.47;;;;;;;;;;5028508;28;20186;-72
2020/12/08 13:56:38;;;;;;;19.73;15.33;;;;;;;;;;5028748;28;20201;-72
2020/12/08 13:59:03;;;;;;;24.00;15.60;;;;;;;;;;5034323;28;20803;-72
2020/12/08 14:01:29;;;;;;;20.53;14.63;;;;;;;;;;5031174;28;20624;-73
2020/12/08 14:03:54;;;;;;;18.47;14.93;;;;;;;;;;5030244;28;20245;-72
2020/12/08 14:06:20;;;;;;;22.50;16.10;;;;;;;;;;5029204;28;20182;-73